createdAt,value
2022-09-18T00:00:14.515Z,100312.19
2022-09-18T00:01:19.726Z,100307.28
2022-09-18T00:02:21.944Z,100304.00
2022-09-18T00:03:25.059Z,100310.63
2022-09-18T00:04:27.570Z,100308.13
2022-09-18T00:05:30.606Z,100312.06
2022-09-18T00:06:36.399Z,100308.16
2022-09-18T00:07:39.548Z,100309.66
2022-09-18T00:08:43.702Z,100312.31
2022-09-18T00:09:47.242Z,100310.88
2022-09-18T00:10:50.608Z,100311.09
2022-09-18T00:11:55.561Z,100317.69
2022-09-18T00:12:59.309Z,100313.59
2022-09-18T00:14:02.346Z,100315.66
2022-09-18T00:15:07.099Z,100314.84
2022-09-18T00:16:12.298Z,100314.25
2022-09-18T00:17:14.655Z,100309.09
2022-09-18T00:18:17.702Z,100309.31
2022-09-18T00:19:20.528Z,100311.16
2022-09-18T00:20:23.562Z,100317.56
2022-09-18T00:21:26.626Z,100320.22
2022-09-18T00:22:29.667Z,100316.94
2022-09-18T00:23:31.709Z,100313.22
2022-09-18T00:24:34.737Z,100316.94
2022-09-18T00:25:36.786Z,100316.94
2022-09-18T00:26:41.853Z,100316.13
2022-09-18T00:27:43.899Z,100320.63
2022-09-18T00:28:47.360Z,100320.63
2022-09-18T00:29:49.704Z,100322.28
2022-09-18T00:30:54.634Z,100321.47
2022-09-18T00:31:56.761Z,100320.63
2022-09-18T00:32:59.891Z,100316.72
2022-09-18T00:34:04.005Z,100321.03
2022-09-18T00:35:08.020Z,100323.47
2022-09-18T00:36:12.253Z,100327.81
2022-09-18T00:37:15.439Z,100321.44
2022-09-18T00:38:17.634Z,100330.06
2022-09-18T00:39:20.681Z,100324.50
2022-09-18T00:40:22.793Z,100322.66
2022-09-18T00:41:28.517Z,100334.97
2022-09-18T00:42:31.917Z,100331.88
2022-09-18T00:43:37.357Z,100321.78
2022-09-18T00:44:42.020Z,100327.97
2022-09-18T00:45:47.478Z,100341.13
2022-09-18T00:46:49.569Z,100340.69
2022-09-18T00:47:53.720Z,100332.44
2022-09-18T00:49:03.364Z,100326.88
2022-09-18T00:50:12.340Z,100328.34
2022-09-18T00:51:15.667Z,100327.50
2022-09-18T00:52:21.218Z,100334.50
2022-09-18T00:53:24.105Z,100356.69
2022-09-18T00:54:30.154Z,100336.13
2022-09-18T00:55:34.856Z,100338.59
2022-09-18T00:56:38.871Z,100333.22
2022-09-18T00:57:49.457Z,100331.38
2022-09-18T00:58:52.571Z,100327.88
2022-09-18T00:59:55.228Z,100329.72
2022-09-18T01:01:02.369Z,100334.69
2022-09-18T01:02:04.880Z,100327.44
2022-09-18T01:03:08.085Z,100331.78
2022-09-18T01:04:11.236Z,100325.59
2022-09-18T01:05:17.522Z,100329.09
2022-09-18T01:06:27.991Z,100322.94
2022-09-18T01:07:42.909Z,100319.66
2022-09-18T01:08:56.372Z,100317.81
2022-09-18T01:10:12.188Z,100315.97
2022-09-18T01:11:27.669Z,100321.31
2022-09-18T01:12:39.055Z,100332.19
2022-09-18T01:13:52.042Z,100313.28
2022-09-18T01:15:04.881Z,100313.28
2022-09-18T01:16:14.470Z,100316.75
2022-09-18T01:17:27.149Z,100315.75
2022-09-18T01:18:40.393Z,100322.72
2022-09-18T01:20:21.549Z,100320.03
2022-09-18T01:21:32.984Z,100319.22
2022-09-18T01:22:51.508Z,100319.22
2022-09-18T01:24:28.400Z,100309.34
2022-09-18T01:25:38.844Z,100312.44
2022-09-18T01:26:51.238Z,100313.66
2022-09-18T01:28:11.831Z,100317.16
2022-09-18T01:29:22.177Z,100328.88
2022-09-18T01:30:24.918Z,100318.19
2022-09-18T01:31:32.580Z,100320.88
2022-09-18T01:32:41.485Z,100325.38
2022-09-18T01:33:51.247Z,100322.94
2022-09-18T01:35:00.047Z,100318.63
2022-09-18T01:36:08.593Z,100325.00
2022-09-18T01:37:17.457Z,100329.72
2022-09-18T01:38:25.003Z,100321.94
2022-09-18T01:39:34.638Z,100319.69
2022-09-18T01:40:41.005Z,100326.88
2022-09-18T01:41:50.899Z,100335.56
2022-09-18T01:43:01.608Z,100328.34
2022-09-18T01:44:09.153Z,100327.97
2022-09-18T01:45:17.287Z,100331.06
2022-09-18T01:46:20.841Z,100324.88
2022-09-18T01:47:28.976Z,100333.13
2022-09-18T01:48:34.031Z,100332.50
2022-09-18T01:49:42.794Z,100341.78
2022-09-18T01:50:53.188Z,100333.16
2022-09-18T01:52:01.384Z,100337.91
2022-09-18T01:53:11.197Z,100332.97
2022-09-18T01:54:16.238Z,100332.16
2022-09-18T01:55:23.713Z,100336.88
2022-09-18T01:56:27.447Z,100334.22
2022-09-18T01:57:37.608Z,100342.88
2022-09-18T01:58:42.471Z,100334.84
2022-09-18T01:59:48.061Z,100336.91
2022-09-18T02:00:55.431Z,100336.28
2022-09-18T02:02:03.508Z,100337.16
2022-09-18T02:03:11.837Z,100342.50
2022-09-18T02:04:22.071Z,100340.00
2022-09-18T02:05:28.919Z,100337.56
2022-09-18T02:06:36.377Z,100345.78
2022-09-18T02:07:48.600Z,100339.00
2022-09-18T02:08:54.308Z,100340.25
2022-09-18T02:09:59.615Z,100331.63
2022-09-18T02:11:07.155Z,100330.16
2022-09-18T02:12:15.880Z,100333.88
2022-09-18T02:13:23.996Z,100334.09
2022-09-18T02:14:32.917Z,100338.59
2022-09-18T02:16:08.473Z,100331.84
2022-09-18T02:17:17.452Z,100328.56
2022-09-18T02:18:27.285Z,100330.63
2022-09-18T02:19:35.633Z,100328.78
2022-09-18T02:20:42.419Z,100327.94
2022-09-18T02:21:47.290Z,100326.31
2022-09-18T02:22:53.937Z,100329.00
2022-09-18T02:24:03.357Z,100322.59
2022-09-18T02:25:13.125Z,100321.78
2022-09-18T02:26:19.555Z,100326.09
2022-09-18T02:27:24.873Z,100326.91
2022-09-18T02:28:31.249Z,100323.22
2022-09-18T02:29:37.277Z,100319.72
2022-09-18T02:30:40.949Z,100318.31
2022-09-18T02:31:43.517Z,100326.69
2022-09-18T02:32:46.874Z,100325.69
2022-09-18T02:33:49.376Z,100317.66
2022-09-18T02:34:52.502Z,100311.28
2022-09-18T02:36:08.261Z,100310.88
2022-09-18T02:37:34.290Z,100316.41
2022-09-18T02:38:44.438Z,100310.28
2022-09-18T02:40:00.268Z,100308.41
2022-09-18T02:41:12.112Z,100315.41
2022-09-18T02:42:27.988Z,100308.00
2022-09-18T02:43:40.483Z,100306.13
2022-09-18T02:44:52.065Z,100307.78
2022-09-18T02:46:01.451Z,100304.06
2022-09-18T02:47:14.715Z,100304.28
2022-09-18T02:48:31.699Z,100302.44
2022-09-18T02:49:46.217Z,100308.59
2022-09-18T02:50:56.506Z,100303.47
2022-09-18T02:52:06.149Z,100300.16
2022-09-18T02:53:13.870Z,100301.84
2022-09-18T02:54:25.449Z,100302.25
2022-09-18T02:55:37.680Z,100305.94
2022-09-18T02:56:45.100Z,100311.72
2022-09-18T02:57:49.822Z,100300.81
2022-09-18T02:58:56.541Z,100306.38
2022-09-18T03:00:03.883Z,100295.06
2022-09-18T03:01:09.438Z,100298.56
2022-09-18T03:02:12.874Z,100303.09
2022-09-18T03:03:18.542Z,100309.47
2022-09-18T03:04:28.445Z,100306.78
2022-09-18T03:05:39.988Z,100299.78
2022-09-18T03:06:42.171Z,100304.56
2022-09-18T03:07:45.351Z,100305.34
2022-09-18T03:08:47.380Z,100309.69
2022-09-18T03:09:50.553Z,100314.19
2022-09-18T03:10:52.685Z,100317.69
2022-09-18T03:11:55.979Z,100310.47
2022-09-18T03:12:58.234Z,100313.16
2022-09-18T03:14:01.701Z,100303.50
2022-09-18T03:15:06.268Z,100305.13
2022-09-18T03:16:10.919Z,100305.97
2022-09-18T03:17:13.048Z,100307.22
2022-09-18T03:18:16.126Z,100316.66
2022-09-18T03:19:18.562Z,100305.13
2022-09-18T03:20:21.759Z,100308.03
2022-09-18T03:21:24.449Z,100307.22
2022-09-18T03:22:27.568Z,100308.44
2022-09-18T03:23:29.612Z,100300.84
2022-09-18T03:24:48.092Z,100306.19
2022-09-18T03:25:52.211Z,100295.75
2022-09-18T03:26:55.650Z,100296.75
2022-09-18T03:28:00.328Z,100298.81
2022-09-18T03:29:15.284Z,100299.84
2022-09-18T03:30:19.693Z,100300.06
2022-09-18T03:31:25.436Z,100303.97
2022-09-18T03:32:27.572Z,100295.97
2022-09-18T03:33:30.619Z,100301.53
2022-09-18T03:34:32.660Z,100304.38
2022-09-18T03:35:35.715Z,100308.09
2022-09-18T03:36:39.405Z,100301.13
2022-09-18T03:37:42.410Z,100301.31
2022-09-18T03:38:47.156Z,100301.50
2022-09-18T03:39:49.324Z,100325.53
2022-09-18T03:40:52.362Z,100304.38
2022-09-18T03:41:54.420Z,100305.22
2022-09-18T03:42:57.649Z,100295.56
2022-09-18T03:44:00.319Z,100298.25
2022-09-18T03:45:03.418Z,100285.91
2022-09-18T03:46:07.363Z,100294.75
2022-09-18T03:47:10.626Z,100277.72
2022-09-18T03:48:12.667Z,100289.00
2022-09-18T03:49:15.743Z,100294.34
2022-09-18T03:50:18.508Z,100288.38
2022-09-18T03:51:22.299Z,100290.44
2022-09-18T03:52:24.436Z,100289.03
2022-09-18T03:53:35.960Z,100293.75
2022-09-18T03:55:01.035Z,100290.47
2022-09-18T03:56:23.122Z,100297.88
2022-09-18T03:57:48.433Z,100286.38
2022-09-18T03:59:11.117Z,100289.03
2022-09-18T04:00:25.627Z,100299.72
2022-09-18T04:01:35.200Z,100292.53
2022-09-18T04:02:55.893Z,100298.66
2022-09-18T04:04:19.307Z,100294.38
2022-09-18T04:05:41.655Z,100291.72
2022-09-18T04:07:10.949Z,100278.97
2022-09-18T04:08:21.933Z,100301.34
2022-09-18T04:09:51.076Z,100293.13
2022-09-18T04:10:53.487Z,100286.78
2022-09-18T04:11:56.562Z,100281.44
2022-09-18T04:12:58.667Z,100288.19
2022-09-18T04:14:07.102Z,100294.38
2022-09-18T04:15:10.269Z,100296.81
2022-09-18T04:16:13.381Z,100287.78
2022-09-18T04:17:16.931Z,100292.94
2022-09-18T04:18:20.062Z,100297.44
2022-09-18T04:19:22.240Z,100306.06
2022-09-18T04:20:26.023Z,100312.19
2022-09-18T04:21:28.241Z,100313.03
2022-09-18T04:22:31.307Z,100328.22
2022-09-18T04:23:33.290Z,100325.53
2022-09-18T04:24:36.473Z,100317.53
2022-09-18T04:25:40.094Z,100313.25
2022-09-18T04:26:43.174Z,100315.06
2022-09-18T04:27:46.188Z,100315.28
2022-09-18T04:28:49.547Z,100313.03
2022-09-18T04:29:54.594Z,100312.22
2022-09-18T04:30:59.284Z,100317.75
2022-09-18T04:32:01.700Z,100307.28
2022-09-18T04:33:08.020Z,100307.72
2022-09-18T04:34:10.233Z,100305.25
2022-09-18T04:35:13.732Z,100302.81
2022-09-18T04:36:17.549Z,100294.19
2022-09-18T04:37:21.455Z,100288.00
2022-09-18T04:38:27.770Z,100296.22
2022-09-18T04:39:32.730Z,100294.59
2022-09-18T04:40:38.121Z,100298.28
2022-09-18T04:41:41.203Z,100291.31
2022-09-18T04:42:43.300Z,100294.97
2022-09-18T04:43:46.494Z,100286.38
2022-09-18T04:44:49.724Z,100296.22
2022-09-18T04:45:52.865Z,100291.09
2022-09-18T04:46:55.180Z,100301.38
2022-09-18T04:47:58.287Z,100292.94
2022-09-18T04:49:02.482Z,100290.50
2022-09-18T04:50:08.853Z,100288.03
2022-09-18T04:51:10.915Z,100286.78
2022-09-18T04:52:32.802Z,100293.78
2022-09-18T04:53:38.033Z,100292.94
2022-09-18T04:54:42.129Z,100295.63
2022-09-18T04:55:45.855Z,100296.25
2022-09-18T04:56:49.900Z,100292.34
2022-09-18T04:57:54.623Z,100275.72
2022-09-18T04:58:59.996Z,100286.38
2022-09-18T05:00:02.655Z,100293.38
2022-09-18T05:01:06.226Z,100286.38
2022-09-18T05:02:08.479Z,100294.38
2022-09-18T05:03:12.377Z,100291.72
2022-09-18T05:04:17.760Z,100286.38
2022-09-18T05:05:29.420Z,100293.38
2022-09-18T05:06:31.972Z,100289.66
2022-09-18T05:07:36.623Z,100294.00
2022-09-18T05:08:38.714Z,100283.31
2022-09-18T05:09:43.004Z,100288.66
2022-09-18T05:10:45.307Z,100283.31
2022-09-18T05:11:49.310Z,100290.28
2022-09-18T05:12:52.686Z,100284.13
2022-09-18T05:13:57.009Z,100283.13
2022-09-18T05:15:01.034Z,100289.25
2022-09-18T05:16:04.843Z,100292.53
2022-09-18T05:17:06.981Z,100294.19
2022-09-18T05:18:23.122Z,100288.03
2022-09-18T05:19:30.438Z,100308.94
2022-09-18T05:20:41.900Z,100316.13
2022-09-18T05:21:44.656Z,100311.41
2022-09-18T05:22:48.436Z,100313.06
2022-09-18T05:23:55.865Z,100319.22
2022-09-18T05:24:58.933Z,100328.25
2022-09-18T05:26:01.038Z,100333.16
2022-09-18T05:27:04.765Z,100334.81
2022-09-18T05:28:06.864Z,100330.50
2022-09-18T05:29:21.464Z,100328.66
2022-09-18T05:30:27.217Z,100322.28
2022-09-18T05:31:33.728Z,100321.28
2022-09-18T05:32:36.284Z,100313.28
2022-09-18T05:33:41.269Z,100315.72
2022-09-18T05:34:44.799Z,100314.91
2022-09-18T05:35:47.936Z,100313.88
2022-09-18T05:36:50.030Z,100315.53
2022-09-18T05:37:54.098Z,100331.53
2022-09-18T05:38:56.127Z,100310.19
2022-09-18T05:40:00.552Z,100313.88
2022-09-18T05:41:03.501Z,100312.03
2022-09-18T05:42:07.130Z,100307.50
2022-09-18T05:43:09.389Z,100300.53
2022-09-18T05:44:13.104Z,100295.81
2022-09-18T05:45:15.519Z,100301.97
2022-09-18T05:46:18.907Z,100294.78
2022-09-18T05:47:36.203Z,100304.44
2022-09-18T05:48:39.859Z,100306.88
2022-09-18T05:49:42.224Z,100307.72
2022-09-18T05:50:46.807Z,100301.34
2022-09-18T05:51:51.274Z,100308.13
2022-09-18T05:53:03.866Z,100307.09
2022-09-18T05:54:15.648Z,100311.41
2022-09-18T05:55:22.396Z,100312.22
2022-09-18T05:56:26.150Z,100307.91
2022-09-18T05:57:30.034Z,100308.53
2022-09-18T05:58:34.230Z,100306.44
2022-09-18T05:59:36.899Z,100314.47
2022-09-18T06:00:40.362Z,100322.47
2022-09-18T06:01:48.021Z,100315.06
2022-09-18T06:02:54.675Z,100313.03
2022-09-18T06:03:59.511Z,100307.69
2022-09-18T06:05:04.345Z,100310.16
2022-09-18T06:06:09.390Z,100309.31
2022-09-18T06:07:13.071Z,100295.97
2022-09-18T06:08:16.069Z,100303.97
2022-09-18T06:09:18.768Z,100297.00
2022-09-18T06:10:23.306Z,100300.50
2022-09-18T06:11:25.621Z,100311.19
2022-09-18T06:12:28.678Z,100310.97
2022-09-18T06:13:30.710Z,100310.16
2022-09-18T06:14:33.759Z,100314.47
2022-09-18T06:15:36.719Z,100316.09
2022-09-18T06:16:42.441Z,100308.94
2022-09-18T06:17:52.041Z,100306.25
2022-09-18T06:18:55.250Z,100300.91
2022-09-18T06:19:59.355Z,100312.19
2022-09-18T06:21:02.449Z,100309.50
2022-09-18T06:22:07.548Z,100302.34
2022-09-18T06:23:11.697Z,100297.81
2022-09-18T06:24:25.129Z,100313.84
2022-09-18T06:25:48.679Z,100313.84
2022-09-18T06:26:52.283Z,100305.00
2022-09-18T06:27:58.781Z,100307.66
2022-09-18T06:29:01.153Z,100315.47
2022-09-18T06:30:10.065Z,100310.97
2022-09-18T06:31:13.088Z,100311.78
2022-09-18T06:32:30.877Z,100306.84
2022-09-18T06:33:35.777Z,100310.31
2022-09-18T06:34:38.872Z,100310.94
2022-09-18T06:35:43.610Z,100312.38
2022-09-18T06:36:46.324Z,100314.84
2022-09-18T06:38:03.934Z,100315.44
2022-09-18T06:39:32.010Z,100315.84
2022-09-18T06:40:36.171Z,100314.81
2022-09-18T06:41:50.284Z,100302.28
2022-09-18T06:43:03.789Z,100296.94
2022-09-18T06:44:32.859Z,100293.69
2022-09-18T06:45:39.365Z,100293.91
2022-09-18T06:46:42.546Z,100293.28
2022-09-18T06:47:54.282Z,100291.63
2022-09-18T06:48:57.819Z,100290.22
2022-09-18T06:50:00.927Z,100288.75
2022-09-18T06:51:04.399Z,100296.19
2022-09-18T06:52:16.729Z,100290.44
2022-09-18T06:53:21.290Z,100285.31
2022-09-18T06:54:27.717Z,100287.97
2022-09-18T06:55:32.404Z,100289.19
2022-09-18T06:56:35.331Z,100293.09
2022-09-18T06:57:38.563Z,100291.63
2022-09-18T06:58:40.791Z,100301.50
2022-09-18T06:59:43.815Z,100306.59
2022-09-18T07:00:47.319Z,100310.88
2022-09-18T07:01:57.968Z,100307.16
2022-09-18T07:03:21.341Z,100296.47
2022-09-18T07:04:56.602Z,100284.34
2022-09-18T07:05:58.701Z,100297.25
2022-09-18T07:08:04.873Z,100299.75
2022-09-18T07:09:12.649Z,100289.06
2022-09-18T07:10:38.659Z,100293.38
2022-09-18T07:11:40.967Z,100292.56
2022-09-18T07:12:48.318Z,100297.69
2022-09-18T07:13:54.226Z,100302.00
2022-09-18T07:14:56.583Z,100298.28
2022-09-18T07:16:01.935Z,100300.75
2022-09-18T07:17:04.085Z,100290.66
2022-09-18T07:18:08.118Z,100293.13
2022-09-18T07:19:10.302Z,100297.84
2022-09-18T07:20:15.036Z,100296.19
2022-09-18T07:21:18.743Z,100296.94
2022-09-18T07:22:21.821Z,100314.59
2022-09-18T07:23:24.310Z,100303.88
2022-09-18T07:24:31.122Z,100298.91
2022-09-18T07:25:33.950Z,100295.81
2022-09-18T07:26:37.546Z,100294.75
2022-09-18T07:27:40.623Z,100291.28
2022-09-18T07:28:43.624Z,100301.16
2022-09-18T07:30:04.130Z,100294.41
2022-09-18T07:31:07.799Z,100296.69
2022-09-18T07:32:11.786Z,100291.72
2022-09-18T07:33:13.893Z,100290.31
2022-09-18T07:34:22.571Z,100281.47
2022-09-18T07:35:24.688Z,100286.81
2022-09-18T07:36:28.035Z,100289.50
2022-09-18T07:37:30.161Z,100285.81
2022-09-18T07:38:50.652Z,100283.72
2022-09-18T07:39:55.402Z,100287.00
2022-09-18T07:41:18.747Z,100290.06
2022-09-18T07:42:20.906Z,100292.31
2022-09-18T07:43:27.661Z,100282.22
2022-09-18T07:44:31.965Z,100288.34
2022-09-18T07:45:36.088Z,100289.34
2022-09-18T07:46:38.387Z,100292.41
2022-09-18T07:47:43.678Z,100289.91
2022-09-18T07:48:46.364Z,100291.09
2022-09-18T07:49:57.376Z,100286.97
2022-09-18T07:51:00.077Z,100282.78
2022-09-18T07:52:03.360Z,100285.25
2022-09-18T07:53:09.075Z,100283.19
2022-09-18T07:54:14.692Z,100283.41
2022-09-18T07:55:28.623Z,100282.78
2022-09-18T07:56:32.809Z,100282.38
2022-09-18T07:57:35.078Z,100280.28
2022-09-18T07:58:56.622Z,100282.34
2022-09-18T08:00:03.494Z,100289.47
2022-09-18T08:01:08.237Z,100290.03
2022-09-18T08:02:18.448Z,100293.03
2022-09-18T08:03:20.584Z,100301.81
2022-09-18T08:04:39.159Z,100288.75
2022-09-18T08:05:55.313Z,100292.75
2022-09-18T08:07:03.537Z,100295.22
2022-09-18T08:08:25.523Z,100293.34
2022-09-18T08:09:39.012Z,100290.06
2022-09-18T08:11:03.302Z,100289.69
2022-09-18T08:12:41.986Z,100293.88
2022-09-18T08:13:58.448Z,100289.75
2022-09-18T08:15:11.303Z,100292.66
2022-09-18T08:16:42.198Z,100298.84
2022-09-18T08:18:05.529Z,100281.50
2022-09-18T08:19:24.553Z,100287.84
2022-09-18T08:20:34.500Z,100288.00
2022-09-18T08:21:53.171Z,100283.19
2022-09-18T08:22:58.393Z,100279.44
2022-09-18T08:24:03.212Z,100271.91
2022-09-18T08:25:07.180Z,100277.78
2022-09-18T08:26:11.598Z,100272.69
2022-09-18T08:27:14.674Z,100285.38
2022-09-18T08:28:16.750Z,100292.03
2022-09-18T08:29:26.421Z,100283.13
2022-09-18T08:30:35.712Z,100285.34
2022-09-18T08:31:42.269Z,100282.19
2022-09-18T08:32:45.684Z,100285.94
2022-09-18T08:33:48.840Z,100288.00
2022-09-18T08:34:51.020Z,100286.59
2022-09-18T08:35:55.408Z,100286.03
2022-09-18T08:37:03.310Z,100283.56
2022-09-18T08:38:24.152Z,100277.38
2022-09-18T08:39:50.110Z,100277.00
2022-09-18T08:41:15.038Z,100279.09
2022-09-18T08:42:28.880Z,100271.06
2022-09-18T08:43:48.158Z,100288.78
2022-09-18T08:44:56.942Z,100274.34
2022-09-18T08:46:02.894Z,100276.56
2022-09-18T08:47:11.294Z,100276.94
2022-09-18T08:48:17.803Z,100260.16
2022-09-18T08:49:25.876Z,100276.97
2022-09-18T08:50:38.344Z,100270.38
2022-09-18T08:51:52.317Z,100273.34
2022-09-18T08:53:03.513Z,100276.06
2022-09-18T08:54:40.824Z,100265.44
2022-09-18T08:56:22.513Z,100280.25
2022-09-18T08:57:57.810Z,100295.19
2022-09-18T08:59:11.316Z,100284.94
2022-09-18T09:00:20.323Z,100290.97
2022-09-18T09:01:40.477Z,100295.41
2022-09-18T09:02:49.313Z,100293.00
2022-09-18T09:03:59.436Z,100283.66
2022-09-18T09:05:08.306Z,100273.69
2022-09-18T09:06:28.957Z,100285.78
2022-09-18T09:07:55.124Z,100266.16
2022-09-18T09:09:14.908Z,100272.84
2022-09-18T09:10:36.097Z,100262.91
2022-09-18T09:11:48.258Z,100269.59
2022-09-18T09:13:06.680Z,100260.22
2022-09-18T09:14:45.832Z,100265.25
2022-09-18T09:15:55.455Z,100274.16
2022-09-18T09:17:05.899Z,100269.88
2022-09-18T09:18:16.956Z,100277.66
2022-09-18T09:19:28.803Z,100288.75
2022-09-18T09:20:45.602Z,100281.97
2022-09-18T09:21:55.255Z,100284.19
2022-09-18T09:23:04.256Z,100283.50
2022-09-18T09:24:25.693Z,100281.22
2022-09-18T09:25:47.177Z,100272.13
2022-09-18T09:27:23.371Z,100271.09
2022-09-18T09:28:59.368Z,100277.69
2022-09-18T09:30:22.034Z,100270.94
2022-09-18T09:31:48.308Z,100274.28
2022-09-18T09:33:08.207Z,100266.88
2022-09-18T09:34:21.851Z,100273.75
2022-09-18T09:35:36.410Z,100277.28
2022-09-18T09:36:49.784Z,100274.47
2022-09-18T09:37:53.855Z,100268.94
2022-09-18T09:39:03.497Z,100267.78
2022-09-18T09:40:14.642Z,100269.84
2022-09-18T09:41:25.669Z,100260.75
2022-09-18T09:42:33.602Z,100267.94
2022-09-18T09:43:45.041Z,100259.59
2022-09-18T09:44:54.226Z,100253.50
2022-09-18T09:46:01.334Z,100260.22
2022-09-18T09:47:16.600Z,100278.22
2022-09-18T09:48:29.142Z,100246.38
2022-09-18T09:49:35.251Z,100243.38
2022-09-18T09:50:47.881Z,100241.66
2022-09-18T09:51:58.016Z,100237.72
2022-09-18T09:53:05.635Z,100235.84
2022-09-18T09:54:10.424Z,100247.38
2022-09-18T09:55:22.845Z,100233.38
2022-09-18T09:56:33.238Z,100232.94
2022-09-18T09:57:45.293Z,100234.00
2022-09-18T09:58:56.176Z,100234.44
2022-09-18T10:00:09.234Z,100237.59
2022-09-18T10:01:36.984Z,100238.84
2022-09-18T10:02:57.200Z,100243.38
2022-09-18T10:04:19.260Z,100251.56
2022-09-18T10:05:28.985Z,100249.00
2022-09-18T10:06:42.650Z,100242.75
2022-09-18T10:07:50.686Z,100246.97
2022-09-18T10:09:02.417Z,100238.84
2022-09-18T10:10:16.218Z,100243.06
2022-09-18T10:11:19.516Z,100235.53
2022-09-18T10:12:33.823Z,100255.81
2022-09-18T10:13:42.777Z,100245.81
2022-09-18T10:14:47.469Z,100233.94
2022-09-18T10:15:59.128Z,100240.00
2022-09-18T10:17:05.933Z,100230.22
2022-09-18T10:18:16.627Z,100225.31
2022-09-18T10:19:23.212Z,100257.06
2022-09-18T10:20:27.666Z,100242.16
2022-09-18T10:21:36.067Z,100241.25
2022-09-18T10:22:42.894Z,100230.63
2022-09-18T10:23:50.789Z,100236.94
2022-09-18T10:25:02.896Z,100250.25
2022-09-18T10:26:10.205Z,100241.25
2022-09-18T10:27:15.541Z,100241.94
2022-09-18T10:28:18.488Z,100235.91
2022-09-18T10:29:23.181Z,100239.00
2022-09-18T10:30:29.432Z,100234.34
2022-09-18T10:31:50.316Z,100243.09
2022-09-18T10:32:54.810Z,100241.59
2022-09-18T10:34:26.204Z,100237.81
2022-09-18T10:35:44.482Z,100236.22
2022-09-18T10:36:49.509Z,100226.97
2022-09-18T10:37:54.059Z,100233.66
2022-09-18T10:39:18.715Z,100243.13
2022-09-18T10:40:30.553Z,100268.78
2022-09-18T10:41:37.995Z,100279.06
2022-09-18T10:42:43.039Z,100322.03
2022-09-18T10:44:04.588Z,100286.28
2022-09-18T10:45:22.958Z,100287.94
2022-09-18T10:46:29.670Z,100292.31
2022-09-18T10:47:36.302Z,100293.09
2022-09-18T10:48:44.024Z,100288.63
2022-09-18T10:49:51.819Z,100269.75
2022-09-18T10:50:57.290Z,100261.69
2022-09-18T10:52:24.498Z,100255.09
2022-09-18T10:53:32.761Z,100254.19
2022-09-18T10:54:58.226Z,100259.22
2022-09-18T10:56:05.956Z,100261.94
2022-09-18T10:57:26.507Z,100273.31
2022-09-18T10:58:32.713Z,100256.03
2022-09-18T10:59:35.163Z,100258.72
2022-09-18T11:00:50.158Z,100265.72
2022-09-18T11:01:56.293Z,100262.00
2022-09-18T11:03:07.683Z,100260.97
2022-09-18T11:04:16.978Z,100255.41
2022-09-18T11:05:22.097Z,100255.63
2022-09-18T11:06:30.130Z,100252.91
2022-09-18T11:07:39.928Z,100243.97
2022-09-18T11:08:46.390Z,100246.59
2022-09-18T11:09:49.664Z,100247.81
2022-09-18T11:10:56.945Z,100237.25
2022-09-18T11:12:01.152Z,100246.69
2022-09-18T11:13:07.099Z,100249.13
2022-09-18T11:14:23.206Z,100232.50
2022-09-18T11:15:36.502Z,100247.97
2022-09-18T11:16:44.094Z,100234.34
2022-09-18T11:17:51.340Z,100233.06
2022-09-18T11:19:12.761Z,100233.47
2022-09-18T11:20:24.875Z,100214.06
2022-09-18T11:21:43.763Z,100218.53
2022-09-18T11:22:47.360Z,100219.50
2022-09-18T11:24:04.155Z,100221.50
2022-09-18T11:25:17.675Z,100217.94
2022-09-18T11:26:28.784Z,100232.28
2022-09-18T11:27:45.963Z,100218.84
2022-09-18T11:29:01.258Z,100223.53
2022-09-18T11:30:15.053Z,100228.97
2022-09-18T11:31:22.498Z,100231.34
2022-09-18T11:32:31.877Z,100231.84
2022-09-18T11:33:44.357Z,100236.91
2022-09-18T11:34:51.583Z,100218.88
2022-09-18T11:36:00.119Z,100232.63
2022-09-18T11:37:08.841Z,100226.34
2022-09-18T11:38:19.384Z,100239.06
2022-09-18T11:39:28.191Z,100222.09
2022-09-18T11:40:33.625Z,100236.88
2022-09-18T11:41:38.704Z,100235.63
2022-09-18T11:42:42.445Z,100231.88
2022-09-18T11:43:46.834Z,100238.06
2022-09-18T11:44:50.447Z,100238.88
2022-09-18T11:46:01.556Z,100243.22
2022-09-18T11:47:29.918Z,100234.94
2022-09-18T11:48:39.922Z,100252.66
2022-09-18T11:49:46.075Z,100235.75
2022-09-18T11:50:55.815Z,100236.66
2022-09-18T11:52:01.466Z,100240.94
2022-09-18T11:53:16.395Z,100235.75
2022-09-18T11:54:28.365Z,100232.41
2022-09-18T11:55:35.233Z,100237.72
2022-09-18T11:56:42.497Z,100247.59
2022-09-18T11:57:56.193Z,100244.63
2022-09-18T11:59:04.062Z,100246.75
2022-09-18T12:00:15.505Z,100239.81
2022-09-18T12:01:44.628Z,100241.50
2022-09-18T12:03:01.118Z,100241.16
2022-09-18T12:04:16.219Z,100225.28
2022-09-18T12:05:24.597Z,100213.19
2022-09-18T12:06:37.377Z,100214.22
2022-09-18T12:07:44.275Z,100214.22
2022-09-18T12:08:53.800Z,100223.50
2022-09-18T12:10:06.249Z,100215.25
2022-09-18T12:11:14.036Z,100212.34
2022-09-18T12:12:21.823Z,100215.63
2022-09-18T12:13:47.051Z,100211.47
2022-09-18T12:14:57.013Z,100213.25
2022-09-18T12:16:05.487Z,100212.56
2022-09-18T12:17:16.899Z,100208.59
2022-09-18T12:18:25.695Z,100204.22
2022-09-18T12:19:34.319Z,100206.56
2022-09-18T12:20:41.537Z,100208.13
2022-09-18T12:22:00.122Z,100192.31
2022-09-18T12:23:04.826Z,100197.94
2022-09-18T12:24:13.819Z,100196.38
2022-09-18T12:25:18.047Z,100196.41
2022-09-18T12:26:54.183Z,100205.44
2022-09-18T12:28:07.459Z,100210.00
2022-09-18T12:29:21.709Z,100218.53
2022-09-18T12:30:35.757Z,100223.09
2022-09-18T12:31:51.369Z,100215.50
2022-09-18T12:33:14.462Z,100205.94
2022-09-18T12:34:25.856Z,100213.47
2022-09-18T12:35:39.086Z,100219.19
2022-09-18T12:36:56.208Z,100212.50
2022-09-18T12:38:11.358Z,100205.97
2022-09-18T12:39:28.196Z,100215.50
2022-09-18T12:41:02.313Z,100215.50
2022-09-18T12:42:15.182Z,100230.28
2022-09-18T12:43:38.223Z,100215.16
2022-09-18T12:44:57.445Z,100209.94
2022-09-18T12:46:12.750Z,100206.13
2022-09-18T12:47:36.153Z,100224.22
2022-09-18T12:48:51.531Z,100220.47
2022-09-18T12:50:16.876Z,100216.63
2022-09-18T12:51:39.313Z,100235.25
2022-09-18T12:53:08.595Z,100219.50
2022-09-18T12:54:32.375Z,100213.75
2022-09-18T12:55:43.888Z,100214.41
2022-09-18T12:57:02.021Z,100198.03
2022-09-18T12:58:21.179Z,100195.31
2022-09-18T12:59:43.746Z,100200.84
2022-09-18T13:00:54.365Z,100203.84
2022-09-18T13:02:42.750Z,100206.78
2022-09-18T13:03:54.314Z,100196.22
2022-09-18T13:07:18.131Z,100202.09
2022-09-18T13:08:31.196Z,100190.19
2022-09-18T13:09:41.527Z,100198.38
2022-09-18T13:10:47.099Z,100205.97
2022-09-18T13:11:54.033Z,100202.25